Time;durP1;ratioP1;P1;durP2;ratioP2;P2;SDS_P1;SDS_P2;PMS_P1;PMS_P2;Temp;Humidity;BMP_temperature;BMP_pressure;BME280_temperature;BME280_humidity;BME280_pressure;Samples;Min_cycle;Max_cycle;Signal;HPM_P1;HPM_P2
2021/12/16 00:11:06;;;;;;;21.15;10.30;;;;;;;2.28;100.00;102558.41;5007778;28;20038;-81
2021/12/16 00:30:15;;;;;;;31.40;10.88;;;;;;;2.19;100.00;102627.88;5022096;28;20033;-83
2021/12/16 00:35:09;;;;;;;43.15;13.38;;;;;;;1.97;100.00;102618.31;5008084;28;20029;-83
2021/12/16 00:37:35;;;;;;;94.88;20.98;;;;;;;1.79;100.00;102621.00;4993875;28;20100;-82
2021/12/16 00:40:03;;;;;;;56.50;15.07;;;;;;;1.54;100.00;102593.00;5005808;28;20466;-83
2021/12/16 00:42:54;;;;;;;49.20;14.48;;;;;;;1.73;100.00;102625.66;5028094;28;20167;-82
2021/12/16 00:55:53;;;;;;;34.70;11.00;;;;;;;1.49;100.00;102616.19;5019580;28;20203;-82
2021/12/16 00:58:23;;;;;;;37.83;10.68;;;;;;;1.59;100.00;102628.09;4986925;28;20056;-82
2021/12/16 01:01:05;;;;;;;21.77;9.52;;;;;;;1.56;100.00;102607.00;5010467;28;20044;-81
2021/12/16 01:04:15;;;;;;;21.20;9.07;;;;;;;1.50;100.00;102613.47;4987466;28;20057;-81
2021/12/16 01:09:31;;;;;;;22.63;9.00;;;;;;;1.42;100.00;102625.38;5004074;28;20060;-83
2021/12/16 01:34:01;;;;;;;25.17;10.38;;;;;;;2.95;100.00;102622.25;5004305;28;20045;-83
2021/12/16 01:49:44;;;;;;;18.35;8.82;;;;;;;3.63;100.00;102616.84;5018133;28;20052;-83
2021/12/16 01:55:09;;;;;;;17.13;8.27;;;;;;;3.83;100.00;102624.53;5003578;28;20390;-83
2021/12/16 01:57:46;;;;;;;21.00;7.35;;;;;;;3.90;100.00;102623.25;5008810;28;20154;-81
2021/12/16 02:00:27;;;;;;;20.10;8.80;;;;;;;3.97;100.00;102631.75;4988782;28;20029;-83
2021/12/16 02:02:59;;;;;;;19.23;8.63;;;;;;;3.99;100.00;102635.16;4989089;28;20510;-82
2021/12/16 02:10:38;;;;;;;21.10;9.43;;;;;;;3.98;100.00;102638.78;5005965;28;20034;-83
2021/12/16 02:37:50;;;;;;;24.02;9.40;;;;;;;4.92;100.00;102659.97;4994893;28;20033;-83
2021/12/16 02:40:17;;;;;;;23.80;10.15;;;;;;;4.96;100.00;102666.84;5005201;28;20391;-83
2021/12/16 02:43:01;;;;;;;46.55;15.32;;;;;;;4.97;100.00;102650.72;4999057;28;20037;-83
2021/12/16 02:48:34;;;;;;;34.63;13.95;;;;;;;5.03;100.00;102639.72;5002631;28;20041;-81
2021/12/16 02:51:12;;;;;;;16.42;7.55;;;;;;;5.29;100.00;102674.56;5008451;28;20041;-83
2021/12/16 02:53:41;;;;;;;20.13;7.55;;;;;;;5.36;100.00;102680.41;5006497;28;20069;-83
2021/12/16 02:56:07;;;;;;;27.27;10.25;;;;;;;5.39;100.00;102674.88;5002244;28;20049;-83
2021/12/16 02:58:37;;;;;;;27.25;10.20;;;;;;;5.45;100.00;102674.47;4992488;28;20041;-82
2021/12/16 03:01:15;;;;;;;18.75;8.65;;;;;;;5.49;100.00;102676.03;4989785;28;20034;-84
2021/12/16 03:03:44;;;;;;;25.77;10.00;;;;;;;5.49;100.00;102676.88;5022576;28;20034;-81
2021/12/16 03:06:11;;;;;;;27.15;10.05;;;;;;;5.61;100.00;102685.06;5008103;28;20040;-84
2021/12/16 03:08:39;;;;;;;25.73;10.07;;;;;;;5.62;100.00;102682.31;5011303;28;20088;-82
2021/12/16 03:21:41;;;;;;;23.58;8.93;;;;;;;6.14;100.00;102683.50;5003609;28;20041;-83
2021/12/16 03:39:45;;;;;;;28.37;8.73;;;;;;;7.62;100.00;102668.94;5012954;28;20398;-85
2021/12/16 03:42:12;;;;;;;28.45;7.57;;;;;;;7.95;100.00;102686.25;5035425;28;20306;-82
2021/12/16 03:44:52;;;;;;;18.85;5.78;;;;;;;8.07;100.00;102696.03;5004846;28;20030;-82
2021/12/16 03:47:20;;;;;;;28.70;8.68;;;;;;;7.94;100.00;102655.94;5018243;28;20104;-84
2021/12/16 03:49:47;;;;;;;20.95;6.63;;;;;;;8.18;100.00;102681.84;5010751;28;20471;-82
2021/12/16 03:52:12;;;;;;;25.38;7.70;;;;;;;8.30;100.00;102692.53;4993003;28;20037;-82
2021/12/16 03:54:49;;;;;;;12.30;5.97;;;;;;;8.28;100.00;102682.91;5006416;28;20034;-83
2021/12/16 03:57:17;;;;;;;13.38;5.57;;;;;;;8.33;100.00;102680.72;5020696;28;20361;-82
2021/12/16 03:59:42;;;;;;;14.80;5.95;;;;;;;8.34;100.00;102686.00;5008159;28;20041;-83
2021/12/16 04:02:22;;;;;;;18.27;6.13;;;;;;;8.43;100.00;102692.50;4995356;28;20033;-83
2021/12/16 04:04:51;;;;;;;20.83;7.90;;;;;;;8.35;100.00;102676.97;5021245;28;20463;-83
2021/12/16 04:07:19;;;;;;;21.77;8.23;;;;;;;8.23;100.00;102668.97;4990272;28;20041;-82
2021/12/16 04:09:47;;;;;;;18.27;6.88;;;;;;;8.19;100.00;102663.00;4992788;28;20132;-82
2021/12/16 04:12:18;;;;;;;21.05;7.90;;;;;;;8.36;100.00;102694.78;5011026;28;20126;-82
2021/12/16 04:14:44;;;;;;;24.95;8.50;;;;;;;8.43;100.00;102702.38;5016483;28;20111;-82
2021/12/16 04:17:13;;;;;;;28.13;8.93;;;;;;;8.21;100.00;102671.78;4985151;28;20041;-83
2021/12/16 04:19:39;;;;;;;12.57;4.90;;;;;;;8.24;100.00;102690.31;5004309;28;20037;-83
2021/12/16 04:22:15;;;;;;;22.55;6.47;;;;;;;8.34;100.00;102710.13;5045655;28;20103;-85
2021/12/16 04:24:42;;;;;;;23.85;7.30;;;;;;;8.24;100.00;102711.75;5024519;28;20034;-82
2021/12/16 04:27:08;;;;;;;23.08;6.95;;;;;;;8.22;100.00;102696.75;5021100;28;20033;-82
2021/12/16 04:29:35;;;;;;;12.75;5.90;;;;;;;8.25;100.00;102713.47;5019482;28;20044;-82
2021/12/16 04:32:02;;;;;;;20.10;7.13;;;;;;;8.24;100.00;102706.41;5023527;28;20605;-82
2021/12/16 04:34:28;;;;;;;19.25;6.22;;;;;;;8.17;100.00;102706.97;5001480;28;20033;-83
2021/12/16 04:36:55;;;;;;;17.40;6.00;;;;;;;8.20;100.00;102720.97;5020948;28;20040;-84
2021/12/16 04:39:24;;;;;;;28.63;7.28;;;;;;;8.26;100.00;102733.94;5003362;28;20034;-83
2021/12/16 04:41:53;;;;;;;20.20;5.55;;;;;;;8.32;100.00;102741.53;5028880;28;20025;-84
2021/12/16 04:44:19;;;;;;;22.15;7.10;;;;;;;8.22;100.00;102716.38;5001385;28;20060;-82
2021/12/16 04:46:46;;;;;;;22.30;7.20;;;;;;;8.27;100.00;102729.44;5018807;28;20055;-83
2021/12/16 04:49:13;;;;;;;16.08;6.13;;;;;;;8.09;100.00;102734.31;5021417;28;20045;-84
2021/12/16 04:51:43;;;;;;;24.83;6.10;;;;;;;7.84;100.00;102737.91;4999923;28;20063;-83
2021/12/16 04:54:10;;;;;;;21.55;6.95;;;;;;;7.48;100.00;102734.16;5017704;28;20069;-83
2021/12/16 04:56:37;;;;;;;21.40;6.30;;;;;;;7.29;100.00;102726.56;5022003;28;20033;-84
2021/12/16 04:59:08;;;;;;;15.95;5.18;;;;;;;7.26;100.00;102743.69;5017605;28;20107;-83
2021/12/16 05:01:35;;;;;;;11.88;5.78;;;;;;;7.11;100.00;102725.16;4987711;28;20041;-82
2021/12/16 05:04:01;;;;;;;19.90;6.10;;;;;;;7.19;100.00;102730.84;4999359;28;20033;-84
2021/12/16 05:06:26;;;;;;;17.80;6.65;;;;;;;7.44;100.00;102746.91;5002835;28;20034;-84
2021/12/16 05:08:52;;;;;;;19.08;6.25;;;;;;;7.46;100.00;102736.97;5005191;28;20037;-82
2021/12/16 05:11:19;;;;;;;20.02;7.15;;;;;;;7.47;100.00;102753.88;5001694;28;20471;-84
2021/12/16 05:13:46;;;;;;;17.67;6.05;;;;;;;7.32;100.00;102739.72;5001822;28;20033;-84
2021/12/16 05:16:12;;;;;;;18.33;6.28;;;;;;;7.27;100.00;102741.88;5008681;28;20037;-82
2021/12/16 05:18:39;;;;;;;17.27;6.53;;;;;;;7.17;100.00;102759.50;4995715;28;20045;-83
2021/12/16 05:21:37;;;;;;;19.67;6.53;;;;;;;7.08;100.00;102762.81;5018948;28;20040;-85
2021/12/16 05:31:14;;;;;;;15.77;5.70;;;;;;;7.43;100.00;102755.91;5002830;28;20522;-83
2021/12/16 05:33:39;;;;;;;22.45;5.90;;;;;;;7.48;100.00;102759.13;5002618;28;20117;-82
2021/12/16 05:36:05;;;;;;;15.45;6.13;;;;;;;7.59;100.00;102757.50;5020650;28;20025;-82
2021/12/16 05:38:31;;;;;;;19.23;6.30;;;;;;;7.63;100.00;102748.31;5020287;28;20029;-83
2021/12/16 05:40:57;;;;;;;15.05;6.28;;;;;;;7.80;100.00;102769.38;5026883;28;20040;-82
2021/12/16 05:43:24;;;;;;;17.30;5.43;;;;;;;7.83;100.00;102774.56;5027731;28;20037;-82
2021/12/16 05:45:53;;;;;;;17.55;5.82;;;;;;;7.91;100.00;102768.63;4992687;28;20209;-84
2021/12/16 05:48:21;;;;;;;21.55;5.82;;;;;;;7.92;100.00;102767.69;5005856;28;20179;-83
2021/12/16 05:50:51;;;;;;;18.70;5.60;;;;;;;7.86;100.00;102744.03;5035403;28;20051;-84
2021/12/16 05:53:18;;;;;;;18.08;5.50;;;;;;;8.06;100.00;102780.94;5027117;28;20036;-82
2021/12/16 05:55:44;;;;;;;15.23;5.75;;;;;;;8.08;100.00;102780.84;5010762;28;20037;-83
2021/12/16 05:58:15;;;;;;;17.38;5.40;;;;;;;8.14;100.00;102785.75;4992250;28;20120;-84
2021/12/16 06:00:41;;;;;;;15.43;5.45;;;;;;;8.13;100.00;102781.38;4997206;28;20041;-83
2021/12/16 06:03:08;;;;;;;16.50;6.85;;;;;;;8.16;100.00;102781.13;5021616;28;20026;-83
2021/12/16 06:05:33;;;;;;;28.13;6.95;;;;;;;8.19;100.00;102785.41;4996994;28;20042;-82
2021/12/16 06:08:00;;;;;;;14.93;5.25;;;;;;;8.14;100.00;102780.38;5026009;28;20037;-83
2021/12/16 06:12:51;;;;;;;20.33;5.95;;;;;;;8.14;100.00;102783.91;5007805;28;20030;-83
2021/12/16 06:15:33;;;;;;;12.77;5.00;;;;;;;8.11;100.00;102772.56;4991514;28;20041;-83
2021/12/16 06:22:28;;;;;;;12.32;4.72;;;;;;;8.22;100.00;102793.22;5039290;28;20132;-82
2021/12/16 06:26:38;;;;;;;11.27;4.63;;;;;;;8.23;100.00;102798.50;5006286;28;20044;-82
2021/12/16 06:29:04;;;;;;;12.43;4.28;;;;;;;8.27;100.00;102801.81;5005978;28;20047;-82
2021/12/16 06:31:30;;;;;;;7.43;3.28;;;;;;;8.19;100.00;102786.28;5001965;28;20034;-83
2021/12/16 06:33:56;;;;;;;15.02;5.60;;;;;;;8.29;100.00;102800.72;5026723;28;20040;-82
2021/12/16 06:36:23;;;;;;;12.10;4.45;;;;;;;8.34;100.00;102800.41;5010452;28;20103;-82
2021/12/16 06:38:49;;;;;;;14.65;4.97;;;;;;;8.28;100.00;102799.03;5028091;28;20041;-83
2021/12/16 06:41:16;;;;;;;12.98;5.68;;;;;;;8.34;100.00;102806.59;5012368;28;20060;-83
2021/12/16 06:43:43;;;;;;;6.47;3.50;;;;;;;8.29;100.00;102808.75;4993937;28;20037;-82
2021/12/16 06:46:13;;;;;;;14.77;4.30;;;;;;;8.32;100.00;102800.50;5006494;28;20040;-84
2021/12/16 06:48:41;;;;;;;17.13;4.90;;;;;;;8.37;100.00;102806.38;5007827;28;20041;-83
2021/12/16 06:51:12;;;;;;;11.18;4.90;;;;;;;8.36;100.00;102815.41;5011175;28;20475;-82
2021/12/16 06:56:21;;;;;;;24.92;4.78;;;;;;;8.35;100.00;102819.03;5002271;28;20033;-82
2021/12/16 06:58:51;;;;;;;10.52;3.65;;;;;;;8.37;100.00;102825.16;4998672;28;20022;-82
2021/12/16 07:01:48;;;;;;;14.25;4.28;;;;;;;8.26;100.00;102805.47;5020526;28;20079;-81
2021/12/16 07:04:13;;;;;;;9.75;5.35;;;;;;;8.45;100.00;102834.50;4999449;28;20128;-84
2021/12/16 07:06:39;;;;;;;8.65;3.83;;;;;;;8.46;100.00;102823.66;5050392;28;20636;-82
2021/12/16 07:09:13;;;;;;;14.90;5.18;;;;;;;8.45;100.00;102823.78;5000950;28;20068;-83
2021/12/16 07:11:42;;;;;;;15.23;4.97;;;;;;;8.46;100.00;102828.16;4987064;28;20060;-85
2021/12/16 07:14:16;;;;;;;13.75;4.00;;;;;;;8.44;100.00;102819.38;4983804;28;20140;-83
2021/12/16 07:16:51;;;;;;;11.52;4.60;;;;;;;8.54;100.00;102833.81;5006400;28;20045;-82
2021/12/16 07:19:19;;;;;;;13.68;4.13;;;;;;;8.59;100.00;102842.38;5032659;28;20159;-82
2021/12/16 07:21:45;;;;;;;13.73;5.10;;;;;;;8.56;100.00;102834.56;5005755;28;20037;-83
2021/12/16 07:24:15;;;;;;;13.55;4.90;;;;;;;8.36;100.00;102807.38;5018726;28;20120;-82
2021/12/16 07:26:42;;;;;;;12.63;4.80;;;;;;;8.60;100.00;102846.81;5014784;28;20055;-83
2021/12/16 07:29:08;;;;;;;16.52;4.30;;;;;;;8.41;100.00;102817.75;5001335;28;20068;-82
2021/12/16 07:31:36;;;;;;;9.82;4.53;;;;;;;8.38;100.00;102824.16;5000513;28;20474;-83
2021/12/16 07:34:05;;;;;;;14.95;5.50;;;;;;;8.38;100.00;102818.81;5015287;28;20368;-83
2021/12/16 07:36:31;;;;;;;15.43;5.15;;;;;;;8.38;100.00;102816.13;5003481;28;20041;-83
2021/12/16 07:38:57;;;;;;;11.27;4.45;;;;;;;8.44;100.00;102833.66;5004848;28;20043;-82
2021/12/16 07:41:26;;;;;;;13.85;3.92;;;;;;;8.56;100.00;102837.25;4988846;28;20045;-84
2021/12/16 07:44:09;;;;;;;13.38;4.78;;;;;;;8.65;100.00;102857.16;5001639;28;20040;-82
2021/12/16 07:46:51;;;;;;;10.13;4.45;;;;;;;8.59;100.00;102848.59;5010533;28;20037;-83
2021/12/16 07:49:20;;;;;;;17.25;4.63;;;;;;;8.64;100.00;102861.69;5021596;28;20034;-81
2021/12/16 07:51:46;;;;;;;22.73;9.18;;;;;;;8.62;100.00;102863.63;5007736;28;20037;-84
2021/12/16 07:54:14;;;;;;;30.95;15.05;;;;;;;8.61;100.00;102858.38;5021453;28;20045;-82
2021/12/16 07:56:40;;;;;;;42.97;23.33;;;;;;;8.53;100.00;102862.47;5005397;28;20034;-83
2021/12/16 07:59:07;;;;;;;46.53;21.85;;;;;;;8.57;100.00;102871.13;5004528;28;20036;-83
2021/12/16 08:01:35;;;;;;;29.60;13.10;;;;;;;8.56;100.00;102869.44;4993076;28;20557;-84
2021/12/16 08:04:00;;;;;;;19.52;6.97;;;;;;;8.52;100.00;102871.47;4996111;28;20137;-83
2021/12/16 08:06:27;;;;;;;12.50;5.18;;;;;;;8.54;100.00;102874.88;4994380;28;20100;-82
2021/12/16 08:08:59;;;;;;;19.05;6.70;;;;;;;8.59;100.00;102879.94;4991891;28;20128;-82
2021/12/16 08:11:27;;;;;;;14.68;4.32;;;;;;;8.62;100.00;102881.53;5022059;28;20038;-82
2021/12/16 08:13:53;;;;;;;14.57;4.78;;;;;;;8.48;100.00;102867.28;5025071;28;20095;-83
2021/12/16 08:16:22;;;;;;;15.80;6.80;;;;;;;8.61;100.00;102888.72;4991296;28;20065;-82
2021/12/16 08:18:53;;;;;;;22.20;6.97;;;;;;;8.50;100.00;102883.28;5000598;28;20493;-83
2021/12/16 08:21:20;;;;;;;16.23;4.82;;;;;;;8.41;100.00;102882.09;4996465;28;20098;-83
2021/12/16 08:23:46;;;;;;;9.85;4.22;;;;;;;8.52;100.00;102900.09;4997296;28;20208;-84
2021/12/16 08:26:15;;;;;;;10.48;4.28;;;;;;;8.47;100.00;102905.81;4997351;28;20064;-82
2021/12/16 08:28:42;;;;;;;16.17;4.80;;;;;;;8.54;100.00;102920.47;5014173;28;20063;-83
2021/12/16 08:31:08;;;;;;;13.43;5.13;;;;;;;8.54;100.00;102924.97;4999028;28;20042;-82
2021/12/16 08:33:34;;;;;;;14.55;4.63;;;;;;;8.43;100.00;102914.19;5012807;28;20102;-83
2021/12/16 08:36:00;;;;;;;16.58;5.97;;;;;;;8.48;100.00;102918.25;5013881;28;20036;-82
2021/12/16 08:38:26;;;;;;;13.63;6.63;;;;;;;8.47;100.00;102921.91;5028552;28;20155;-83
2021/12/16 08:41:00;;;;;;;15.85;6.28;;;;;;;8.50;100.00;102934.22;5017769;28;20124;-82
2021/12/16 08:43:25;;;;;;;13.48;5.30;;;;;;;8.53;100.00;102940.22;5005806;28;20399;-83
2021/12/16 08:45:51;;;;;;;20.35;5.35;;;;;;;8.34;100.00;102905.78;5010365;28;20049;-84
2021/12/16 08:48:17;;;;;;;13.10;4.97;;;;;;;8.38;100.00;102923.34;5010518;28;20030;-83
2021/12/16 08:50:48;;;;;;;12.68;4.93;;;;;;;8.51;100.00;102949.34;5027315;28;20064;-83
2021/12/16 08:53:15;;;;;;;14.63;4.97;;;;;;;8.53;100.00;102942.06;5044605;28;20147;-83
2021/12/16 08:55:43;;;;;;;15.57;5.95;;;;;;;8.53;100.00;102934.00;4996805;28;20550;-82
2021/12/16 08:58:09;;;;;;;17.85;8.25;;;;;;;8.56;100.00;102939.16;4994915;28;20549;-83
2021/12/16 09:00:39;;;;;;;19.27;9.15;;;;;;;8.51;100.00;102926.06;4990521;28;20113;-82
2021/12/16 09:03:05;;;;;;;16.38;6.82;;;;;;;8.67;100.00;102947.28;5004980;28;20033;-83
2021/12/16 09:05:31;;;;;;;17.60;8.90;;;;;;;8.75;100.00;102949.41;4998357;28;20159;-83
2021/12/16 09:07:57;;;;;;;15.93;7.43;;;;;;;8.67;100.00;102935.69;4996967;28;20030;-82
2021/12/16 09:10:27;;;;;;;14.50;6.47;;;;;;;8.77;100.00;102963.56;4997950;28;20447;-82
2021/12/16 09:13:02;;;;;;;15.30;6.22;;;;;;;8.74;100.00;102953.06;4996512;28;20091;-85
2021/12/16 09:15:31;;;;;;;13.55;5.82;;;;;;;8.75;100.00;102960.13;5020762;28;20079;-83
2021/12/16 09:17:57;;;;;;;17.33;7.32;;;;;;;8.84;100.00;102967.53;4992669;28;20034;-84
2021/12/16 09:20:24;;;;;;;14.75;5.82;;;;;;;8.79;100.00;102965.19;4995985;28;20063;-84
2021/12/16 09:22:50;;;;;;;5.95;2.65;;;;;;;8.87;100.00;102974.50;5026784;28;20442;-82
2021/12/16 09:25:16;;;;;;;15.65;5.15;;;;;;;8.72;100.00;102950.50;4995651;28;20038;-82
2021/12/16 09:27:42;;;;;;;18.85;6.72;;;;;;;8.71;100.00;102948.78;5014724;28;20390;-82
2021/12/16 09:30:10;;;;;;;10.82;5.05;;;;;;;8.76;100.00;102954.69;5040913;28;20063;-81
2021/12/16 09:32:37;;;;;;;15.07;5.68;;;;;;;9.01;100.00;102979.72;5010369;28;20052;-81
2021/12/16 09:35:07;;;;;;;17.85;5.95;;;;;;;9.01;100.00;102977.91;5007014;28;20037;-82
2021/12/16 09:37:35;;;;;;;12.90;5.03;;;;;;;8.92;100.00;102970.53;4995827;28;20048;-84
2021/12/16 09:40:05;;;;;;;8.85;4.18;;;;;;;8.89;100.00;102962.72;4995910;28;20037;-85
2021/12/16 09:42:30;;;;;;;13.02;4.03;;;;;;;9.06;100.00;102990.13;5028713;28;20037;-84
2021/12/16 09:44:56;;;;;;;14.85;5.43;;;;;;;9.12;100.00;102984.31;5010132;28;20026;-85
2021/12/16 09:47:23;;;;;;;9.48;4.05;;;;;;;9.16;100.00;102994.72;5028121;28;20025;-84
2021/12/16 09:49:49;;;;;;;12.45;5.22;;;;;;;9.17;100.00;102984.84;5011685;28;20033;-84
2021/12/16 09:52:16;;;;;;;9.40;3.60;;;;;;;9.20;100.00;102987.28;5013058;28;20037;-84
2021/12/16 09:54:43;;;;;;;17.98;6.00;;;;;;;9.17;100.00;102974.09;5011337;28;20105;-84
2021/12/16 09:57:10;;;;;;;17.98;6.38;;;;;;;9.29;100.00;102993.81;5046753;28;20140;-84
2021/12/16 09:59:36;;;;;;;12.93;6.22;;;;;;;9.39;100.00;103008.28;5014058;28;20037;-84
2021/12/16 10:02:07;;;;;;;14.15;5.70;;;;;;;9.36;100.00;103005.81;5028780;28;20033;-84
2021/12/16 10:04:35;;;;;;;15.27;6.40;;;;;;;9.38;100.00;103002.06;5031002;28;20078;-85
2021/12/16 10:07:05;;;;;;;16.60;5.53;;;;;;;9.43;100.00;103005.25;5030115;28;20033;-84
2021/12/16 10:09:31;;;;;;;14.68;5.50;;;;;;;9.50;100.00;103019.09;4997457;28;20653;-85
2021/12/16 10:12:00;;;;;;;14.20;5.60;;;;;;;9.52;100.00;103029.72;4992527;28;20124;-84
2021/12/16 10:19:55;;;;;;;11.68;4.18;;;;;;;9.60;100.00;103035.38;5017777;28;20180;-85
2021/12/16 10:22:33;;;;;;;10.85;4.90;;;;;;;9.67;100.00;103039.34;5012768;28;20040;-84
2021/12/16 10:25:29;;;;;;;14.63;6.15;;;;;;;9.73;100.00;103043.38;5014326;28;20033;-84
2021/12/16 10:28:23;;;;;;;15.63;5.78;;;;;;;9.77;100.00;103051.09;5027790;28;20084;-85
2021/12/16 10:30:55;;;;;;;21.48;8.35;;;;;;;9.71;100.00;103035.44;5047425;28;20100;-84
2021/12/16 10:33:28;;;;;;;11.48;5.35;;;;;;;9.55;100.00;103014.25;5029426;28;20048;-86
2021/12/16 10:36:15;;;;;;;21.33;9.25;;;;;;;9.87;100.00;103059.31;5030225;28;20029;-84
2021/12/16 10:38:51;;;;;;;16.95;7.35;;;;;;;9.62;100.00;103014.63;5024098;28;20049;-84
2021/12/16 10:41:24;;;;;;;18.70;5.53;;;;;;;9.79;100.00;103040.22;5028674;28;20030;-84
2021/12/16 10:43:55;;;;;;;23.60;9.47;;;;;;;9.81;100.00;103055.25;5013043;28;20030;-85
2021/12/16 10:46:28;;;;;;;40.25;12.38;;;;;;;9.86;100.00;103060.31;4997087;28;20052;-85
2021/12/16 10:49:03;;;;;;;36.80;13.18;;;;;;;10.00;100.00;103084.34;5030075;28;20036;-84
2021/12/16 10:51:39;;;;;;;47.58;18.75;;;;;;;10.01;100.00;103094.09;4988575;28;20053;-84
2021/12/16 10:54:13;;;;;;;16.90;8.27;;;;;;;10.00;100.00;103078.97;5013141;28;20041;-84
2021/12/16 10:56:47;;;;;;;44.85;16.38;;;;;;;10.03;100.00;103083.22;5013459;28;20133;-84
2021/12/16 10:59:39;;;;;;;27.40;8.88;;;;;;;10.05;100.00;103084.81;5013367;28;20029;-84
2021/12/16 11:02:08;;;;;;;14.63;6.28;;;;;;;9.97;100.00;103078.31;5010358;28;20456;-85
2021/12/16 11:04:56;;;;;;;5.80;2.92;;;;;;;10.02;100.00;103082.38;5005273;28;20077;-83
2021/12/16 11:07:34;;;;;;;9.38;4.35;;;;;;;10.04;100.00;103088.50;4996580;28;20029;-84
2021/12/16 11:10:13;;;;;;;10.73;5.00;;;;;;;9.87;100.00;103064.69;5029701;28;20034;-84
2021/12/16 11:12:43;;;;;;;17.48;7.47;;;;;;;9.89;100.00;103076.19;5013342;28;20033;-85
2021/12/16 11:15:11;;;;;;;17.65;7.50;;;;;;;9.99;100.00;103098.72;5026717;28;20029;-84
2021/12/16 11:17:40;;;;;;;10.00;4.90;;;;;;;9.90;100.00;103078.78;5028337;28;20431;-84
2021/12/16 11:20:08;;;;;;;11.88;4.03;;;;;;;9.90;100.00;103076.09;5012966;28;20047;-84
2021/12/16 11:22:36;;;;;;;10.10;4.53;;;;;;;10.02;100.00;103089.56;5012766;28;20061;-84
2021/12/16 11:25:24;;;;;;;12.23;4.07;;;;;;;9.98;100.00;103085.41;5029162;28;20482;-84
2021/12/16 11:28:13;;;;;;;10.48;4.35;;;;;;;9.99;100.00;103082.59;4997092;28;20083;-84
2021/12/16 11:30:53;;;;;;;8.18;4.00;;;;;;;10.00;100.00;103088.81;5015279;28;20536;-84
2021/12/16 11:33:26;;;;;;;11.98;3.97;;;;;;;10.00;100.00;103086.13;5023229;28;20087;-84
2021/12/16 11:36:13;;;;;;;10.73;4.18;;;;;;;9.99;100.00;103087.13;5025283;28;20038;-84
2021/12/16 11:38:49;;;;;;;17.17;6.07;;;;;;;10.04;100.00;103099.25;5008017;28;20149;-84
2021/12/16 11:41:39;;;;;;;9.93;4.63;;;;;;;9.96;100.00;103081.97;5021484;28;20103;-84
2021/12/16 11:44:11;;;;;;;40.08;15.15;;;;;;;9.91;100.00;103080.47;5027684;28;20033;-84
2021/12/16 11:46:51;;;;;;;22.23;10.10;;;;;;;9.96;100.00;103098.09;5029465;28;20029;-84
2021/12/16 11:49:36;;;;;;;11.73;5.47;;;;;;;9.90;100.00;103094.91;5028644;28;20033;-84
2021/12/16 11:52:09;;;;;;;9.60;5.40;;;;;;;9.64;100.00;103055.69;5026258;28;20050;-84
2021/12/16 11:54:37;;;;;;;;;;;;;;;9.84;100.00;103098.06;5006167;28;20521;-84
2021/12/16 11:57:19;;;;;;;15.77;6.18;;;;;;;9.82;100.00;103097.31;5045740;28;19924;-84
2021/12/16 11:59:54;;;;;;;18.85;6.63;;;;;;;9.71;100.00;103083.78;4996699;28;20052;-84
2021/12/16 12:03:00;;;;;;;4.60;2.50;;;;;;;9.80;100.00;103085.81;4996944;28;20056;-84
2021/12/16 12:05:30;;;;;;;10.13;4.00;;;;;;;9.87;100.00;103092.44;4971162;28;20108;-84
2021/12/16 12:08:22;;;;;;;15.13;5.00;;;;;;;9.84;100.00;103094.47;4956268;28;20042;-84
2021/12/16 12:10:51;;;;;;;7.68;4.47;;;;;;;9.80;100.00;103091.19;5011339;28;20132;-84
2021/12/16 12:13:36;;;;;;;10.77;4.45;;;;;;;9.82;100.00;103097.31;5028900;28;20548;-84
2021/12/16 12:16:09;;;;;;;12.45;3.97;;;;;;;9.69;100.00;103072.31;4988846;28;20037;-83
2021/12/16 12:18:44;;;;;;;8.32;4.20;;;;;;;9.77;100.00;103098.63;4996732;28;20129;-84
2021/12/16 12:21:30;;;;;;;16.55;7.28;;;;;;;9.74;100.00;103097.00;5012532;28;20095;-84
2021/12/16 12:24:12;;;;;;;8.40;3.60;;;;;;;9.73;100.00;103099.81;5028312;28;20040;-84
2021/12/16 12:26:48;;;;;;;11.50;5.18;;;;;;;9.71;100.00;103088.31;5019522;28;20033;-84
2021/12/16 12:29:21;;;;;;;15.52;5.70;;;;;;;9.71;100.00;103093.69;5030211;28;20430;-83
2021/12/16 12:31:53;;;;;;;9.00;4.38;;;;;;;9.68;100.00;103089.38;5032514;28;20057;-84
2021/12/16 12:34:21;;;;;;;10.60;4.00;;;;;;;9.60;100.00;103068.47;4998306;28;20025;-84
2021/12/16 12:36:49;;;;;;;16.20;5.03;;;;;;;9.61;100.00;103072.88;5015639;28;20064;-84
2021/12/16 12:39:17;;;;;;;11.88;5.03;;;;;;;9.73;100.00;103092.59;4999496;28;20037;-84
2021/12/16 12:41:45;;;;;;;11.25;5.35;;;;;;;9.72;100.00;103090.03;5001579;28;20037;-84
2021/12/16 12:44:11;;;;;;;17.92;7.68;;;;;;;9.69;100.00;103097.34;5010609;28;20052;-84
2021/12/16 12:46:42;;;;;;;23.25;10.48;;;;;;;9.70;100.00;103092.81;5015987;28;20144;-84
2021/12/16 12:49:14;;;;;;;91.97;29.25;;;;;;;9.64;100.00;103085.22;4999837;28;20045;-83
2021/12/16 12:51:47;;;;;;;72.22;26.17;;;;;;;9.67;100.00;103083.16;4999043;28;20048;-84
2021/12/16 12:54:25;;;;;;;47.95;19.00;;;;;;;9.69;100.00;103102.72;5029153;28;20051;-84
2021/12/16 12:56:54;;;;;;;92.50;28.17;;;;;;;9.68;100.00;103106.38;5032272;28;20084;-83
2021/12/16 12:59:23;;;;;;;60.58;18.45;;;;;;;9.60;100.00;103084.56;5013670;28;20597;-83
2021/12/16 13:01:55;;;;;;;92.70;31.77;;;;;;;9.58;100.00;103077.59;5024453;28;20057;-84
2021/12/16 13:04:26;;;;;;;98.80;21.33;;;;;;;9.69;100.00;103093.81;5031249;28;20043;-83
2021/12/16 13:06:59;;;;;;;89.82;23.20;;;;;;;9.68;100.00;103086.69;5031735;28;20033;-84
2021/12/16 13:09:34;;;;;;;45.10;12.65;;;;;;;9.75;100.00;103089.81;4994613;28;20122;-83
2021/12/16 13:12:03;;;;;;;49.97;17.65;;;;;;;9.69;100.00;103075.00;4995504;28;20084;-83
2021/12/16 13:14:44;;;;;;;26.15;9.98;;;;;;;9.69;99.46;103064.25;5015308;28;20125;-83
2021/12/16 13:28:18;;;;;;;8.20;4.13;;;;;;;9.61;95.52;103062.13;5029425;28;20038;-84
2021/12/16 13:31:02;;;;;;;9.15;4.05;;;;;;;9.59;94.59;103072.13;5031658;28;20029;-83
2021/12/16 13:33:46;;;;;;;9.80;4.70;;;;;;;9.63;94.63;103097.81;5029505;28;20029;-85
2021/12/16 13:36:25;;;;;;;11.00;4.50;;;;;;;9.64;96.87;103098.66;5014768;28;20065;-83
2021/12/16 13:38:51;;;;;;;9.93;4.70;;;;;;;9.61;98.30;103096.19;5031110;28;20091;-83
2021/12/16 13:41:23;;;;;;;10.48;4.55;;;;;;;9.56;98.19;103091.16;5013396;28;20038;-83
2021/12/16 13:43:58;;;;;;;11.82;4.53;;;;;;;9.49;98.70;103084.50;5030453;28;20081;-84
2021/12/16 13:46:42;;;;;;;11.77;4.50;;;;;;;9.48;99.97;103093.53;5030632;28;20079;-84
2021/12/16 13:58:12;;;;;;;13.65;5.93;;;;;;;9.39;99.88;103088.81;5014405;28;20069;-83
2021/12/16 13:58:40;;;;;;;18.90;6.07;;;;;;;9.41;100.00;103093.13;5027905;28;20124;-84
2021/12/16 14:01:53;;;;;;;52.80;18.90;;;;;;;9.44;100.00;103100.94;5030277;28;20037;-83
2021/12/16 14:04:58;;;;;;;25.23;11.05;;;;;;;9.42;100.00;103110.97;5013206;28;20079;-83
2021/12/16 14:07:53;;;;;;;7.75;4.82;;;;;;;9.40;100.00;103104.84;5016102;28;20040;-84
2021/12/16 14:10:22;;;;;;;25.02;6.82;;;;;;;9.40;100.00;103106.69;5015194;28;20033;-83
2021/12/16 14:26:12;;;;;;;14.90;6.60;;;;;;;9.21;99.60;103093.72;5025170;28;20044;-85
2021/12/16 14:39:55;;;;;;;25.25;9.13;;;;;;;9.10;100.00;103107.03;5030291;28;20043;-83
2021/12/16 14:42:42;;;;;;;11.60;6.15;;;;;;;9.02;100.00;103096.81;5013323;28;20083;-83
2021/12/16 14:50:46;;;;;;;15.48;7.63;;;;;;;9.03;100.00;103104.78;5028841;28;20128;-84
2021/12/16 14:53:26;;;;;;;17.83;8.18;;;;;;;8.96;100.00;103091.91;5029518;28;20386;-83
2021/12/16 14:56:04;;;;;;;18.65;8.40;;;;;;;9.01;100.00;103095.97;5013427;28;20056;-84
2021/12/16 14:58:29;;;;;;;21.35;9.50;;;;;;;8.90;100.00;103081.59;4992885;28;20036;-84
2021/12/16 15:01:04;;;;;;;16.75;6.70;;;;;;;8.99;100.00;103094.34;4996857;28;20033;-84
2021/12/16 15:03:35;;;;;;;23.27;9.35;;;;;;;8.94;100.00;103089.31;4996666;28;20041;-83
2021/12/16 15:06:06;;;;;;;21.00;9.63;;;;;;;8.85;100.00;103079.25;4997673;28;20124;-84
2021/12/16 15:08:46;;;;;;;21.83;9.23;;;;;;;8.93;100.00;103098.34;5012732;28;20034;-84